sensor_id;sensor_type;location;lat;lon;timestamp;P1;durP1;ratioP1;P2;durP2;ratioP2
10529;SDS011;5313;48.834;9.228;2022-09-03T00:10:53;2.43;;;1.23;;
10529;SDS011;5313;48.834;9.228;2022-09-03T00:13:32;2.20;;;1.40;;
10529;SDS011;5313;48.834;9.228;2022-09-03T00:16:02;2.17;;;1.13;;
10529;SDS011;5313;48.834;9.228;2022-09-03T00:18:34;1.93;;;1.20;;
10529;SDS011;5313;48.834;9.228;2022-09-03T00:21:12;1.37;;;1.10;;
10529;SDS011;5313;48.834;9.228;2022-09-03T00:23:43;2.97;;;1.30;;
10529;SDS011;5313;48.834;9.228;2022-09-03T00:28:39;1.43;;;1.10;;
10529;SDS011;5313;48.834;9.228;2022-09-03T00:31:26;2.30;;;1.20;;
10529;SDS011;5313;48.834;9.228;2022-09-03T00:34:01;1.67;;;1.20;;
10529;SDS011;5313;48.834;9.228;2022-09-03T00:36:48;2.27;;;1.20;;
10529;SDS011;5313;48.834;9.228;2022-09-03T00:39:15;2.03;;;1.33;;
10529;SDS011;5313;48.834;9.228;2022-09-03T00:50:02;1.77;;;1.40;;
10529;SDS011;5313;48.834;9.228;2022-09-03T00:52:58;3.33;;;1.67;;
10529;SDS011;5313;48.834;9.228;2022-09-03T00:58:33;3.67;;;1.23;;
10529;SDS011;5313;48.834;9.228;2022-09-03T01:14:57;1.90;;;1.63;;
10529;SDS011;5313;48.834;9.228;2022-09-03T01:20:26;4.97;;;1.60;;
10529;SDS011;5313;48.834;9.228;2022-09-03T01:23:13;2.47;;;1.57;;
10529;SDS011;5313;48.834;9.228;2022-09-03T01:31:21;3.30;;;1.40;;
10529;SDS011;5313;48.834;9.228;2022-09-03T01:39:50;3.70;;;1.30;;
10529;SDS011;5313;48.834;9.228;2022-09-03T01:48:08;1.63;;;1.23;;
10529;SDS011;5313;48.834;9.228;2022-09-03T01:50:57;1.77;;;1.57;;
10529;SDS011;5313;48.834;9.228;2022-09-03T01:54:21;1.33;;;1.23;;
10529;SDS011;5313;48.834;9.228;2022-09-03T01:56:39;5.97;;;1.40;;
10529;SDS011;5313;48.834;9.228;2022-09-03T01:59:28;2.17;;;1.20;;
10529;SDS011;5313;48.834;9.228;2022-09-03T02:02:04;2.03;;;1.60;;
10529;SDS011;5313;48.834;9.228;2022-09-03T02:04:36;1.80;;;1.23;;
10529;SDS011;5313;48.834;9.228;2022-09-03T02:07:02;1.53;;;1.20;;
10529;SDS011;5313;48.834;9.228;2022-09-03T02:09:29;1.93;;;1.50;;
10529;SDS011;5313;48.834;9.228;2022-09-03T02:11:55;2.30;;;1.40;;
10529;SDS011;5313;48.834;9.228;2022-09-03T02:14:29;1.50;;;1.20;;
10529;SDS011;5313;48.834;9.228;2022-09-03T02:16:57;2.93;;;1.30;;
10529;SDS011;5313;48.834;9.228;2022-09-03T02:19:25;2.93;;;1.23;;
10529;SDS011;5313;48.834;9.228;2022-09-03T02:21:52;1.40;;;1.30;;
10529;SDS011;5313;48.834;9.228;2022-09-03T02:24:21;2.87;;;1.20;;
10529;SDS011;5313;48.834;9.228;2022-09-03T02:26:47;2.03;;;1.20;;
10529;SDS011;5313;48.834;9.228;2022-09-03T02:29:14;3.00;;;1.27;;
10529;SDS011;5313;48.834;9.228;2022-09-03T02:31:41;1.73;;;1.40;;
10529;SDS011;5313;48.834;9.228;2022-09-03T02:34:07;1.63;;;1.30;;
10529;SDS011;5313;48.834;9.228;2022-09-03T02:36:36;1.20;;;1.00;;
10529;SDS011;5313;48.834;9.228;2022-09-03T02:39:04;1.53;;;1.23;;
10529;SDS011;5313;48.834;9.228;2022-09-03T02:41:30;2.10;;;1.47;;
10529;SDS011;5313;48.834;9.228;2022-09-03T02:46:32;1.63;;;1.20;;
10529;SDS011;5313;48.834;9.228;2022-09-03T02:49:02;1.80;;;1.50;;
10529;SDS011;5313;48.834;9.228;2022-09-03T02:51:46;2.17;;;1.37;;
10529;SDS011;5313;48.834;9.228;2022-09-03T02:54:11;2.87;;;1.27;;
10529;SDS011;5313;48.834;9.228;2022-09-03T02:56:37;2.33;;;1.50;;
10529;SDS011;5313;48.834;9.228;2022-09-03T02:59:04;2.20;;;1.50;;
10529;SDS011;5313;48.834;9.228;2022-09-03T03:01:31;1.57;;;1.43;;
10529;SDS011;5313;48.834;9.228;2022-09-03T03:03:57;1.80;;;1.40;;
10529;SDS011;5313;48.834;9.228;2022-09-03T03:06:23;1.50;;;1.40;;
10529;SDS011;5313;48.834;9.228;2022-09-03T03:08:49;1.80;;;1.30;;
10529;SDS011;5313;48.834;9.228;2022-09-03T03:11:15;1.90;;;1.50;;
10529;SDS011;5313;48.834;9.228;2022-09-03T03:13:42;1.90;;;1.40;;
10529;SDS011;5313;48.834;9.228;2022-09-03T03:16:09;2.20;;;1.50;;
10529;SDS011;5313;48.834;9.228;2022-09-03T03:18:36;10.37;;;5.87;;
10529;SDS011;5313;48.834;9.228;2022-09-03T03:21:05;6.30;;;3.10;;
10529;SDS011;5313;48.834;9.228;2022-09-03T03:23:32;3.20;;;1.80;;
10529;SDS011;5313;48.834;9.228;2022-09-03T03:26:05;1.63;;;1.50;;
10529;SDS011;5313;48.834;9.228;2022-09-03T03:28:32;1.63;;;1.30;;
10529;SDS011;5313;48.834;9.228;2022-09-03T03:31:05;1.67;;;1.23;;
10529;SDS011;5313;48.834;9.228;2022-09-03T03:33:32;1.63;;;1.20;;
10529;SDS011;5313;48.834;9.228;2022-09-03T03:36:02;1.33;;;1.20;;
10529;SDS011;5313;48.834;9.228;2022-09-03T03:38:31;3.20;;;1.87;;
10529;SDS011;5313;48.834;9.228;2022-09-03T03:40:56;2.00;;;1.50;;
10529;SDS011;5313;48.834;9.228;2022-09-03T03:43:22;3.57;;;1.50;;
10529;SDS011;5313;48.834;9.228;2022-09-03T03:45:57;1.97;;;1.40;;
10529;SDS011;5313;48.834;9.228;2022-09-03T03:48:23;1.93;;;1.57;;
10529;SDS011;5313;48.834;9.228;2022-09-03T03:50:49;1.80;;;1.30;;
10529;SDS011;5313;48.834;9.228;2022-09-03T03:53:15;1.83;;;1.37;;
10529;SDS011;5313;48.834;9.228;2022-09-03T03:55:41;1.30;;;1.20;;
10529;SDS011;5313;48.834;9.228;2022-09-03T03:58:06;1.60;;;1.40;;
10529;SDS011;5313;48.834;9.228;2022-09-03T04:00:32;3.47;;;1.40;;
10529;SDS011;5313;48.834;9.228;2022-09-03T04:03:01;6.83;;;1.70;;
10529;SDS011;5313;48.834;9.228;2022-09-03T04:05:28;1.90;;;1.50;;
10529;SDS011;5313;48.834;9.228;2022-09-03T04:07:53;3.17;;;1.50;;
10529;SDS011;5313;48.834;9.228;2022-09-03T04:10:19;3.77;;;1.50;;
10529;SDS011;5313;48.834;9.228;2022-09-03T04:12:44;2.80;;;1.30;;
10529;SDS011;5313;48.834;9.228;2022-09-03T04:15:10;1.50;;;1.40;;
10529;SDS011;5313;48.834;9.228;2022-09-03T04:17:36;2.83;;;1.47;;
10529;SDS011;5313;48.834;9.228;2022-09-03T04:20:01;2.53;;;1.60;;
10529;SDS011;5313;48.834;9.228;2022-09-03T04:22:28;3.03;;;1.63;;
10529;SDS011;5313;48.834;9.228;2022-09-03T04:24:53;1.93;;;1.40;;
10529;SDS011;5313;48.834;9.228;2022-09-03T04:27:19;1.57;;;1.47;;
10529;SDS011;5313;48.834;9.228;2022-09-03T04:29:45;2.77;;;1.43;;
10529;SDS011;5313;48.834;9.228;2022-09-03T04:32:10;2.13;;;1.60;;
10529;SDS011;5313;48.834;9.228;2022-09-03T04:34:54;1.40;;;1.20;;
10529;SDS011;5313;48.834;9.228;2022-09-03T04:37:21;2.20;;;1.70;;
10529;SDS011;5313;48.834;9.228;2022-09-03T04:39:46;3.73;;;1.50;;
10529;SDS011;5313;48.834;9.228;2022-09-03T04:42:12;3.00;;;1.70;;
10529;SDS011;5313;48.834;9.228;2022-09-03T04:44:37;1.87;;;1.53;;
10529;SDS011;5313;48.834;9.228;2022-09-03T04:47:05;7.33;;;1.80;;
10529;SDS011;5313;48.834;9.228;2022-09-03T04:49:30;2.43;;;1.57;;
10529;SDS011;5313;48.834;9.228;2022-09-03T04:51:56;1.90;;;1.60;;
10529;SDS011;5313;48.834;9.228;2022-09-03T04:54:21;1.80;;;1.50;;
10529;SDS011;5313;48.834;9.228;2022-09-03T04:56:47;3.13;;;1.50;;
10529;SDS011;5313;48.834;9.228;2022-09-03T04:59:12;2.30;;;1.50;;
10529;SDS011;5313;48.834;9.228;2022-09-03T05:01:38;2.23;;;1.50;;
10529;SDS011;5313;48.834;9.228;2022-09-03T05:04:04;1.93;;;1.50;;
10529;SDS011;5313;48.834;9.228;2022-09-03T05:06:32;1.90;;;1.70;;
10529;SDS011;5313;48.834;9.228;2022-09-03T05:08:58;1.97;;;1.37;;
10529;SDS011;5313;48.834;9.228;2022-09-03T05:11:25;1.80;;;1.70;;
10529;SDS011;5313;48.834;9.228;2022-09-03T05:13:52;3.10;;;1.80;;
10529;SDS011;5313;48.834;9.228;2022-09-03T05:16:20;2.40;;;1.70;;
10529;SDS011;5313;48.834;9.228;2022-09-03T05:18:46;3.73;;;1.70;;
10529;SDS011;5313;48.834;9.228;2022-09-03T05:21:16;2.13;;;1.60;;
10529;SDS011;5313;48.834;9.228;2022-09-03T05:23:43;4.00;;;1.50;;
10529;SDS011;5313;48.834;9.228;2022-09-03T05:26:12;2.53;;;1.60;;
10529;SDS011;5313;48.834;9.228;2022-09-03T05:28:43;2.10;;;1.60;;
10529;SDS011;5313;48.834;9.228;2022-09-03T05:31:13;3.13;;;1.67;;
10529;SDS011;5313;48.834;9.228;2022-09-03T05:33:47;2.40;;;1.60;;
10529;SDS011;5313;48.834;9.228;2022-09-03T05:36:18;3.60;;;1.70;;
10529;SDS011;5313;48.834;9.228;2022-09-03T05:38:48;3.10;;;1.70;;
10529;SDS011;5313;48.834;9.228;2022-09-03T05:41:14;2.83;;;1.67;;
10529;SDS011;5313;48.834;9.228;2022-09-03T05:43:42;2.60;;;1.80;;
10529;SDS011;5313;48.834;9.228;2022-09-03T05:46:09;2.47;;;1.97;;
10529;SDS011;5313;48.834;9.228;2022-09-03T05:48:36;2.13;;;1.57;;
10529;SDS011;5313;48.834;9.228;2022-09-03T05:51:05;4.93;;;1.63;;
10529;SDS011;5313;48.834;9.228;2022-09-03T05:53:33;5.77;;;1.90;;
10529;SDS011;5313;48.834;9.228;2022-09-03T05:56:00;3.33;;;1.93;;
10529;SDS011;5313;48.834;9.228;2022-09-03T05:58:30;4.60;;;1.93;;
10529;SDS011;5313;48.834;9.228;2022-09-03T06:03:44;3.07;;;1.97;;
10529;SDS011;5313;48.834;9.228;2022-09-03T06:06:11;2.90;;;2.13;;
10529;SDS011;5313;48.834;9.228;2022-09-03T06:08:38;5.90;;;1.50;;
10529;SDS011;5313;48.834;9.228;2022-09-03T06:11:03;4.40;;;1.90;;
10529;SDS011;5313;48.834;9.228;2022-09-03T06:13:30;4.07;;;1.70;;
10529;SDS011;5313;48.834;9.228;2022-09-03T06:15:57;3.90;;;1.77;;
10529;SDS011;5313;48.834;9.228;2022-09-03T06:18:24;3.67;;;1.90;;
10529;SDS011;5313;48.834;9.228;2022-09-03T06:20:58;2.40;;;1.67;;
10529;SDS011;5313;48.834;9.228;2022-09-03T06:23:24;3.70;;;1.87;;
10529;SDS011;5313;48.834;9.228;2022-09-03T06:28:35;3.23;;;1.63;;
10529;SDS011;5313;48.834;9.228;2022-09-03T06:31:02;4.90;;;2.00;;
10529;SDS011;5313;48.834;9.228;2022-09-03T06:33:30;3.17;;;2.17;;
10529;SDS011;5313;48.834;9.228;2022-09-03T06:35:58;3.17;;;1.63;;
10529;SDS011;5313;48.834;9.228;2022-09-03T06:38:25;2.20;;;1.60;;
10529;SDS011;5313;48.834;9.228;2022-09-03T06:40:53;3.53;;;1.80;;
10529;SDS011;5313;48.834;9.228;2022-09-03T06:43:20;2.40;;;1.70;;
10529;SDS011;5313;48.834;9.228;2022-09-03T06:48:25;2.57;;;1.90;;
10529;SDS011;5313;48.834;9.228;2022-09-03T06:50:53;2.83;;;1.90;;
10529;SDS011;5313;48.834;9.228;2022-09-03T06:53:21;2.77;;;1.77;;
10529;SDS011;5313;48.834;9.228;2022-09-03T06:55:54;2.53;;;1.90;;
10529;SDS011;5313;48.834;9.228;2022-09-03T06:58:20;2.20;;;1.87;;
10529;SDS011;5313;48.834;9.228;2022-09-03T07:00:47;1.90;;;1.80;;
10529;SDS011;5313;48.834;9.228;2022-09-03T07:03:13;2.47;;;2.10;;
10529;SDS011;5313;48.834;9.228;2022-09-03T07:05:41;2.23;;;2.00;;
10529;SDS011;5313;48.834;9.228;2022-09-03T07:08:08;2.50;;;1.90;;
10529;SDS011;5313;48.834;9.228;2022-09-03T07:10:35;4.73;;;2.10;;
10529;SDS011;5313;48.834;9.228;2022-09-03T07:13:01;3.10;;;2.13;;
10529;SDS011;5313;48.834;9.228;2022-09-03T07:15:27;3.93;;;2.40;;
10529;SDS011;5313;48.834;9.228;2022-09-03T07:17:53;4.97;;;2.20;;
10529;SDS011;5313;48.834;9.228;2022-09-03T07:20:19;3.60;;;2.27;;
10529;SDS011;5313;48.834;9.228;2022-09-03T07:22:45;4.57;;;2.50;;
10529;SDS011;5313;48.834;9.228;2022-09-03T07:25:10;3.90;;;2.20;;
10529;SDS011;5313;48.834;9.228;2022-09-03T07:27:36;3.37;;;2.47;;
10529;SDS011;5313;48.834;9.228;2022-09-03T07:30:01;4.17;;;2.33;;
10529;SDS011;5313;48.834;9.228;2022-09-03T07:32:27;3.47;;;2.10;;
10529;SDS011;5313;48.834;9.228;2022-09-03T07:34:53;2.53;;;2.30;;
10529;SDS011;5313;48.834;9.228;2022-09-03T07:37:18;2.43;;;2.13;;
10529;SDS011;5313;48.834;9.228;2022-09-03T07:39:44;3.93;;;2.10;;
10529;SDS011;5313;48.834;9.228;2022-09-03T07:42:10;3.87;;;2.30;;
10529;SDS011;5313;48.834;9.228;2022-09-03T07:44:36;3.33;;;2.37;;
10529;SDS011;5313;48.834;9.228;2022-09-03T07:47:02;3.53;;;2.30;;
10529;SDS011;5313;48.834;9.228;2022-09-03T07:49:27;3.63;;;2.67;;
10529;SDS011;5313;48.834;9.228;2022-09-03T07:51:53;2.30;;;2.10;;
10529;SDS011;5313;48.834;9.228;2022-09-03T07:54:19;2.90;;;2.60;;
10529;SDS011;5313;48.834;9.228;2022-09-03T07:56:45;5.23;;;3.03;;
10529;SDS011;5313;48.834;9.228;2022-09-03T07:59:11;3.10;;;2.73;;
10529;SDS011;5313;48.834;9.228;2022-09-03T08:01:37;3.47;;;2.50;;
10529;SDS011;5313;48.834;9.228;2022-09-03T08:04:03;7.80;;;2.57;;
10529;SDS011;5313;48.834;9.228;2022-09-03T08:06:31;3.67;;;2.43;;
10529;SDS011;5313;48.834;9.228;2022-09-03T08:09:00;6.07;;;2.40;;
10529;SDS011;5313;48.834;9.228;2022-09-03T08:11:28;5.93;;;3.33;;
10529;SDS011;5313;48.834;9.228;2022-09-03T08:16:28;6.13;;;2.63;;
10529;SDS011;5313;48.834;9.228;2022-09-03T08:18:55;3.57;;;2.87;;
10529;SDS011;5313;48.834;9.228;2022-09-03T08:21:21;3.30;;;2.60;;
10529;SDS011;5313;48.834;9.228;2022-09-03T08:23:48;4.10;;;2.27;;
10529;SDS011;5313;48.834;9.228;2022-09-03T08:26:16;4.47;;;2.80;;
10529;SDS011;5313;48.834;9.228;2022-09-03T08:28:43;4.13;;;2.80;;
10529;SDS011;5313;48.834;9.228;2022-09-03T08:31:13;3.70;;;2.60;;
10529;SDS011;5313;48.834;9.228;2022-09-03T08:33:41;3.13;;;2.50;;
10529;SDS011;5313;48.834;9.228;2022-09-03T08:36:12;4.07;;;2.50;;
10529;SDS011;5313;48.834;9.228;2022-09-03T08:38:40;4.37;;;2.73;;
10529;SDS011;5313;48.834;9.228;2022-09-03T08:46:51;3.73;;;2.47;;
10529;SDS011;5313;48.834;9.228;2022-09-03T08:52:44;5.03;;;2.70;;
10529;SDS011;5313;48.834;9.228;2022-09-03T08:55:30;3.40;;;2.63;;
10529;SDS011;5313;48.834;9.228;2022-09-03T08:58:08;6.37;;;2.63;;
10529;SDS011;5313;48.834;9.228;2022-09-03T09:03:44;3.63;;;2.37;;
10529;SDS011;5313;48.834;9.228;2022-09-03T09:15:02;3.37;;;2.30;;
10529;SDS011;5313;48.834;9.228;2022-09-03T09:20:36;4.47;;;2.40;;
10529;SDS011;5313;48.834;9.228;2022-09-03T09:23:42;4.07;;;2.90;;
10529;SDS011;5313;48.834;9.228;2022-09-03T09:26:06;7.03;;;2.97;;
10529;SDS011;5313;48.834;9.228;2022-09-03T09:28:36;2.93;;;2.63;;
10529;SDS011;5313;48.834;9.228;2022-09-03T09:31:03;4.67;;;2.93;;
10529;SDS011;5313;48.834;9.228;2022-09-03T09:33:36;3.73;;;2.63;;
10529;SDS011;5313;48.834;9.228;2022-09-03T09:36:03;4.27;;;2.90;;
10529;SDS011;5313;48.834;9.228;2022-09-03T09:38:33;3.13;;;2.83;;
10529;SDS011;5313;48.834;9.228;2022-09-03T09:44:00;3.63;;;2.87;;
10529;SDS011;5313;48.834;9.228;2022-09-03T09:46:30;3.03;;;2.67;;
10529;SDS011;5313;48.834;9.228;2022-09-03T09:49:06;3.83;;;2.80;;
10529;SDS011;5313;48.834;9.228;2022-09-03T09:51:59;3.67;;;2.77;;
10529;SDS011;5313;48.834;9.228;2022-09-03T09:54:30;3.13;;;2.83;;
10529;SDS011;5313;48.834;9.228;2022-09-03T09:56:59;9.03;;;2.80;;
10529;SDS011;5313;48.834;9.228;2022-09-03T09:59:27;6.43;;;2.60;;
10529;SDS011;5313;48.834;9.228;2022-09-03T10:02:01;5.30;;;2.73;;
10529;SDS011;5313;48.834;9.228;2022-09-03T10:04:32;2.87;;;2.50;;
10529;SDS011;5313;48.834;9.228;2022-09-03T10:07:06;3.27;;;2.60;;
10529;SDS011;5313;48.834;9.228;2022-09-03T10:09:56;4.47;;;2.60;;
10529;SDS011;5313;48.834;9.228;2022-09-03T10:12:31;3.73;;;2.60;;
10529;SDS011;5313;48.834;9.228;2022-09-03T10:15:21;3.17;;;2.67;;
10529;SDS011;5313;48.834;9.228;2022-09-03T10:17:54;4.17;;;2.90;;
10529;SDS011;5313;48.834;9.228;2022-09-03T10:20:30;2.63;;;2.43;;
10529;SDS011;5313;48.834;9.228;2022-09-03T10:23:13;3.63;;;2.83;;
10529;SDS011;5313;48.834;9.228;2022-09-03T10:25:54;4.53;;;2.60;;
10529;SDS011;5313;48.834;9.228;2022-09-03T10:28:31;3.43;;;2.77;;
10529;SDS011;5313;48.834;9.228;2022-09-03T10:31:12;5.90;;;2.50;;
10529;SDS011;5313;48.834;9.228;2022-09-03T10:34:11;4.23;;;2.60;;
10529;SDS011;5313;48.834;9.228;2022-09-03T10:37:05;3.73;;;2.30;;
10529;SDS011;5313;48.834;9.228;2022-09-03T10:42:08;2.93;;;2.40;;
10529;SDS011;5313;48.834;9.228;2022-09-03T10:44:47;2.70;;;2.20;;
10529;SDS011;5313;48.834;9.228;2022-09-03T10:50:24;3.27;;;2.50;;
10529;SDS011;5313;48.834;9.228;2022-09-03T10:53:03;2.77;;;2.43;;
10529;SDS011;5313;48.834;9.228;2022-09-03T10:58:28;4.70;;;2.60;;
10529;SDS011;5313;48.834;9.228;2022-09-03T11:06:54;3.63;;;2.40;;
10529;SDS011;5313;48.834;9.228;2022-09-03T11:09:35;2.47;;;2.27;;
10529;SDS011;5313;48.834;9.228;2022-09-03T11:12:15;3.27;;;2.30;;
10529;SDS011;5313;48.834;9.228;2022-09-03T11:15:00;2.80;;;2.50;;
10529;SDS011;5313;48.834;9.228;2022-09-03T11:17:35;2.80;;;2.50;;
10529;SDS011;5313;48.834;9.228;2022-09-03T11:20:10;3.17;;;2.87;;
10529;SDS011;5313;48.834;9.228;2022-09-03T11:22:38;2.90;;;2.60;;
10529;SDS011;5313;48.834;9.228;2022-09-03T11:25:07;3.50;;;2.77;;
10529;SDS011;5313;48.834;9.228;2022-09-03T11:33:08;4.20;;;3.13;;
10529;SDS011;5313;48.834;9.228;2022-09-03T11:38:01;4.97;;;2.80;;
10529;SDS011;5313;48.834;9.228;2022-09-03T11:41:03;3.23;;;2.90;;
10529;SDS011;5313;48.834;9.228;2022-09-03T11:43:40;3.13;;;2.80;;
10529;SDS011;5313;48.834;9.228;2022-09-03T11:46:25;6.10;;;3.00;;
10529;SDS011;5313;48.834;9.228;2022-09-03T11:48:56;3.73;;;2.90;;
10529;SDS011;5313;48.834;9.228;2022-09-03T11:51:35;4.57;;;2.80;;
10529;SDS011;5313;48.834;9.228;2022-09-03T11:56:30;2.73;;;2.40;;
10529;SDS011;5313;48.834;9.228;2022-09-03T11:59:03;3.10;;;2.50;;
10529;SDS011;5313;48.834;9.228;2022-09-03T12:01:42;4.17;;;2.77;;
10529;SDS011;5313;48.834;9.228;2022-09-03T12:10:49;3.80;;;2.77;;
10529;SDS011;5313;48.834;9.228;2022-09-03T12:18:25;4.23;;;3.17;;
10529;SDS011;5313;48.834;9.228;2022-09-03T12:23:40;4.37;;;3.03;;
10529;SDS011;5313;48.834;9.228;2022-09-03T12:26:21;3.20;;;2.90;;
10529;SDS011;5313;48.834;9.228;2022-09-03T12:28:52;3.80;;;3.00;;
10529;SDS011;5313;48.834;9.228;2022-09-03T12:31:24;3.20;;;2.80;;
10529;SDS011;5313;48.834;9.228;2022-09-03T12:36:23;3.80;;;3.27;;
10529;SDS011;5313;48.834;9.228;2022-09-03T12:38:51;4.10;;;3.03;;
10529;SDS011;5313;48.834;9.228;2022-09-03T12:41:34;3.63;;;3.27;;
10529;SDS011;5313;48.834;9.228;2022-09-03T12:44:01;3.53;;;3.20;;
10529;SDS011;5313;48.834;9.228;2022-09-03T12:46:28;4.00;;;2.87;;
10529;SDS011;5313;48.834;9.228;2022-09-03T12:48:57;3.93;;;2.93;;
10529;SDS011;5313;48.834;9.228;2022-09-03T12:51:32;4.67;;;2.70;;
10529;SDS011;5313;48.834;9.228;2022-09-03T12:54:04;6.17;;;2.50;;
10529;SDS011;5313;48.834;9.228;2022-09-03T12:56:33;5.27;;;3.00;;
10529;SDS011;5313;48.834;9.228;2022-09-03T12:59:09;9.33;;;2.77;;
10529;SDS011;5313;48.834;9.228;2022-09-03T13:01:42;4.47;;;3.00;;
10529;SDS011;5313;48.834;9.228;2022-09-03T13:04:16;4.33;;;2.80;;
10529;SDS011;5313;48.834;9.228;2022-09-03T13:06:47;3.70;;;2.67;;
10529;SDS011;5313;48.834;9.228;2022-09-03T13:09:28;5.10;;;3.00;;
10529;SDS011;5313;48.834;9.228;2022-09-03T13:11:56;4.10;;;2.57;;
10529;SDS011;5313;48.834;9.228;2022-09-03T13:14:23;5.40;;;2.57;;
10529;SDS011;5313;48.834;9.228;2022-09-03T13:25:15;4.30;;;3.57;;
10529;SDS011;5313;48.834;9.228;2022-09-03T13:30:52;4.87;;;2.57;;
10529;SDS011;5313;48.834;9.228;2022-09-03T13:33:27;5.77;;;2.60;;
10529;SDS011;5313;48.834;9.228;2022-09-03T13:46:47;3.00;;;2.00;;
10529;SDS011;5313;48.834;9.228;2022-09-03T13:55:44;4.17;;;2.00;;
10529;SDS011;5313;48.834;9.228;2022-09-03T13:58:18;5.90;;;3.67;;
10529;SDS011;5313;48.834;9.228;2022-09-03T14:04:03;2.13;;;1.60;;
10529;SDS011;5313;48.834;9.228;2022-09-03T14:06:42;3.87;;;2.07;;
10529;SDS011;5313;48.834;9.228;2022-09-03T14:17:31;3.33;;;1.60;;
10529;SDS011;5313;48.834;9.228;2022-09-03T14:25:22;2.40;;;1.43;;
10529;SDS011;5313;48.834;9.228;2022-09-03T14:27:48;4.20;;;1.73;;
10529;SDS011;5313;48.834;9.228;2022-09-03T14:40:39;3.67;;;1.80;;
10529;SDS011;5313;48.834;9.228;2022-09-03T14:44:15;4.27;;;1.50;;
10529;SDS011;5313;48.834;9.228;2022-09-03T14:49:07;2.97;;;1.67;;
10529;SDS011;5313;48.834;9.228;2022-09-03T14:55:13;4.90;;;1.77;;
10529;SDS011;5313;48.834;9.228;2022-09-03T15:00:44;2.83;;;1.40;;
10529;SDS011;5313;48.834;9.228;2022-09-03T15:06:27;3.60;;;1.40;;
10529;SDS011;5313;48.834;9.228;2022-09-03T15:11:30;5.07;;;1.30;;
10529;SDS011;5313;48.834;9.228;2022-09-03T15:24:52;2.73;;;1.80;;
10529;SDS011;5313;48.834;9.228;2022-09-03T15:27:36;3.40;;;1.50;;
10529;SDS011;5313;48.834;9.228;2022-09-03T15:32:40;3.80;;;1.50;;
10529;SDS011;5313;48.834;9.228;2022-09-03T15:44:07;2.33;;;1.80;;
10529;SDS011;5313;48.834;9.228;2022-09-03T15:52:09;2.30;;;1.60;;
10529;SDS011;5313;48.834;9.228;2022-09-03T15:54:55;5.70;;;2.00;;
10529;SDS011;5313;48.834;9.228;2022-09-03T16:00:11;2.23;;;1.30;;
10529;SDS011;5313;48.834;9.228;2022-09-03T16:02:42;6.47;;;1.50;;
10529;SDS011;5313;48.834;9.228;2022-09-03T16:08:21;1.87;;;1.67;;
10529;SDS011;5313;48.834;9.228;2022-09-03T16:10:58;5.03;;;1.93;;
10529;SDS011;5313;48.834;9.228;2022-09-03T16:22:47;3.40;;;1.70;;
10529;SDS011;5313;48.834;9.228;2022-09-03T16:27:31;2.83;;;1.60;;
10529;SDS011;5313;48.834;9.228;2022-09-03T16:30:29;4.90;;;1.80;;
10529;SDS011;5313;48.834;9.228;2022-09-03T16:41:42;3.83;;;1.83;;
10529;SDS011;5313;48.834;9.228;2022-09-03T16:47:13;2.33;;;1.67;;
10529;SDS011;5313;48.834;9.228;2022-09-03T16:53:05;4.63;;;1.80;;
10529;SDS011;5313;48.834;9.228;2022-09-03T16:58:24;3.07;;;1.87;;
10529;SDS011;5313;48.834;9.228;2022-09-03T17:12:15;3.47;;;1.73;;
10529;SDS011;5313;48.834;9.228;2022-09-03T17:23:03;3.37;;;1.97;;
10529;SDS011;5313;48.834;9.228;2022-09-03T17:25:35;3.60;;;1.80;;
10529;SDS011;5313;48.834;9.228;2022-09-03T17:40:27;4.30;;;1.80;;
10529;SDS011;5313;48.834;9.228;2022-09-03T17:54:08;2.60;;;1.80;;
10529;SDS011;5313;48.834;9.228;2022-09-03T18:02:05;2.63;;;1.90;;
10529;SDS011;5313;48.834;9.228;2022-09-03T18:05:40;2.97;;;1.97;;
10529;SDS011;5313;48.834;9.228;2022-09-03T18:08:01;4.85;;;2.20;;
10529;SDS011;5313;48.834;9.228;2022-09-03T18:10:39;2.60;;;1.73;;
10529;SDS011;5313;48.834;9.228;2022-09-03T18:15:53;2.83;;;2.13;;
10529;SDS011;5313;48.834;9.228;2022-09-03T18:20:59;2.67;;;1.30;;
10529;SDS011;5313;48.834;9.228;2022-09-03T18:27:05;4.93;;;1.90;;
10529;SDS011;5313;48.834;9.228;2022-09-03T18:30:05;2.87;;;1.57;;
10529;SDS011;5313;48.834;9.228;2022-09-03T18:32:51;3.17;;;1.50;;
10529;SDS011;5313;48.834;9.228;2022-09-03T18:35:35;6.63;;;4.93;;
10529;SDS011;5313;48.834;9.228;2022-09-03T18:38:24;6.97;;;3.47;;
10529;SDS011;5313;48.834;9.228;2022-09-03T18:52:59;4.17;;;2.67;;
10529;SDS011;5313;48.834;9.228;2022-09-03T18:55:54;3.87;;;1.57;;
10529;SDS011;5313;48.834;9.228;2022-09-03T18:58:53;3.40;;;2.00;;
10529;SDS011;5313;48.834;9.228;2022-09-03T19:01:50;2.67;;;2.07;;
10529;SDS011;5313;48.834;9.228;2022-09-03T19:04:52;3.13;;;1.90;;
10529;SDS011;5313;48.834;9.228;2022-09-03T19:08:01;2.47;;;1.90;;
10529;SDS011;5313;48.834;9.228;2022-09-03T19:14:14;2.93;;;1.93;;
10529;SDS011;5313;48.834;9.228;2022-09-03T19:20:36;2.20;;;1.67;;
10529;SDS011;5313;48.834;9.228;2022-09-03T19:23:23;2.93;;;2.00;;
10529;SDS011;5313;48.834;9.228;2022-09-03T19:26:17;3.23;;;2.60;;
10529;SDS011;5313;48.834;9.228;2022-09-03T19:29:15;3.70;;;2.67;;
10529;SDS011;5313;48.834;9.228;2022-09-03T19:32:20;3.17;;;2.43;;
10529;SDS011;5313;48.834;9.228;2022-09-03T19:35:20;3.23;;;2.30;;
10529;SDS011;5313;48.834;9.228;2022-09-03T19:38:12;4.70;;;2.57;;
10529;SDS011;5313;48.834;9.228;2022-09-03T19:41:19;7.57;;;2.50;;
10529;SDS011;5313;48.834;9.228;2022-09-03T19:44:18;4.03;;;2.70;;
10529;SDS011;5313;48.834;9.228;2022-09-03T19:47:11;5.43;;;3.20;;
10529;SDS011;5313;48.834;9.228;2022-09-03T19:50:21;4.37;;;3.20;;
10529;SDS011;5313;48.834;9.228;2022-09-03T19:53:10;5.77;;;2.87;;
10529;SDS011;5313;48.834;9.228;2022-09-03T19:56:08;4.40;;;2.47;;
10529;SDS011;5313;48.834;9.228;2022-09-03T19:58:59;3.27;;;2.40;;
10529;SDS011;5313;48.834;9.228;2022-09-03T20:01:46;4.63;;;2.30;;
10529;SDS011;5313;48.834;9.228;2022-09-03T20:04:32;2.13;;;1.87;;
10529;SDS011;5313;48.834;9.228;2022-09-03T20:07:20;5.07;;;2.00;;
10529;SDS011;5313;48.834;9.228;2022-09-03T20:10:07;3.30;;;2.10;;
10529;SDS011;5313;48.834;9.228;2022-09-03T20:12:49;4.37;;;2.60;;
10529;SDS011;5313;48.834;9.228;2022-09-03T20:23:54;5.40;;;2.60;;
10529;SDS011;5313;48.834;9.228;2022-09-03T20:26:39;3.33;;;2.70;;
10529;SDS011;5313;48.834;9.228;2022-09-03T20:29:26;7.10;;;2.60;;
10529;SDS011;5313;48.834;9.228;2022-09-03T20:32:28;2.97;;;2.50;;
10529;SDS011;5313;48.834;9.228;2022-09-03T20:38:17;5.13;;;3.13;;
10529;SDS011;5313;48.834;9.228;2022-09-03T20:43:57;2.67;;;2.40;;
10529;SDS011;5313;48.834;9.228;2022-09-03T20:49:46;3.00;;;2.30;;
10529;SDS011;5313;48.834;9.228;2022-09-03T20:52:43;4.70;;;2.40;;
10529;SDS011;5313;48.834;9.228;2022-09-03T20:55:17;2.60;;;2.20;;
10529;SDS011;5313;48.834;9.228;2022-09-03T20:57:51;3.53;;;2.33;;
10529;SDS011;5313;48.834;9.228;2022-09-03T21:00:40;3.20;;;2.00;;
10529;SDS011;5313;48.834;9.228;2022-09-03T21:08:39;2.57;;;2.10;;
10529;SDS011;5313;48.834;9.228;2022-09-03T21:14:18;2.13;;;1.87;;
10529;SDS011;5313;48.834;9.228;2022-09-03T21:17:07;3.30;;;2.07;;
10529;SDS011;5313;48.834;9.228;2022-09-03T21:27:55;2.67;;;1.93;;
10529;SDS011;5313;48.834;9.228;2022-09-03T21:30:25;3.20;;;1.97;;
10529;SDS011;5313;48.834;9.228;2022-09-03T21:35:38;2.27;;;2.03;;
10529;SDS011;5313;48.834;9.228;2022-09-03T21:38:13;3.57;;;1.93;;
10529;SDS011;5313;48.834;9.228;2022-09-03T21:40:46;3.47;;;2.40;;
10529;SDS011;5313;48.834;9.228;2022-09-03T21:43:36;2.97;;;2.30;;
10529;SDS011;5313;48.834;9.228;2022-09-03T21:46:08;3.77;;;2.20;;
10529;SDS011;5313;48.834;9.228;2022-09-03T21:48:46;4.27;;;2.50;;
10529;SDS011;5313;48.834;9.228;2022-09-03T21:51:26;2.83;;;2.23;;
10529;SDS011;5313;48.834;9.228;2022-09-03T21:54:07;5.00;;;2.57;;
10529;SDS011;5313;48.834;9.228;2022-09-03T21:57:04;2.83;;;2.40;;
10529;SDS011;5313;48.834;9.228;2022-09-03T22:02:16;2.60;;;2.27;;
10529;SDS011;5313;48.834;9.228;2022-09-03T22:04:49;3.57;;;2.80;;
10529;SDS011;5313;48.834;9.228;2022-09-03T22:12:55;5.07;;;3.20;;
10529;SDS011;5313;48.834;9.228;2022-09-03T22:15:33;4.33;;;3.10;;